sensor_id;sensor_type;location;lat;lon;timestamp;P1;durP1;ratioP1;P2;durP2;ratioP2
52112;SDS011;38109;49.488;31.988;2023-05-20T00:00:13;5.47;;;4.38;;
52112;SDS011;38109;49.488;31.988;2023-05-20T00:02:39;5.85;;;4.20;;
52112;SDS011;38109;49.488;31.988;2023-05-20T00:05:05;5.38;;;4.57;;
52112;SDS011;38109;49.488;31.988;2023-05-20T00:07:31;5.32;;;4.47;;
52112;SDS011;38109;49.488;31.988;2023-05-20T00:09:57;6.75;;;4.57;;
52112;SDS011;38109;49.488;31.988;2023-05-20T00:12:22;6.93;;;4.32;;
52112;SDS011;38109;49.488;31.988;2023-05-20T00:14:48;4.90;;;4.32;;
52112;SDS011;38109;49.488;31.988;2023-05-20T00:17:14;4.70;;;3.70;;
52112;SDS011;38109;49.488;31.988;2023-05-20T00:19:39;5.28;;;4.40;;
52112;SDS011;38109;49.488;31.988;2023-05-20T00:22:05;6.13;;;4.40;;
52112;SDS011;38109;49.488;31.988;2023-05-20T00:24:31;5.25;;;4.38;;
52112;SDS011;38109;49.488;31.988;2023-05-20T00:26:56;5.47;;;4.22;;
52112;SDS011;38109;49.488;31.988;2023-05-20T00:29:22;5.63;;;4.55;;
52112;SDS011;38109;49.488;31.988;2023-05-20T00:31:48;5.72;;;4.20;;
52112;SDS011;38109;49.488;31.988;2023-05-20T00:34:13;5.72;;;4.18;;
52112;SDS011;38109;49.488;31.988;2023-05-20T00:36:39;5.13;;;4.20;;
52112;SDS011;38109;49.488;31.988;2023-05-20T00:39:04;6.65;;;4.20;;
52112;SDS011;38109;49.488;31.988;2023-05-20T00:41:31;5.20;;;4.18;;
52112;SDS011;38109;49.488;31.988;2023-05-20T00:43:56;4.88;;;4.20;;
52112;SDS011;38109;49.488;31.988;2023-05-20T00:46:22;4.85;;;4.20;;
52112;SDS011;38109;49.488;31.988;2023-05-20T00:48:50;5.13;;;4.20;;
52112;SDS011;38109;49.488;31.988;2023-05-20T00:51:16;5.10;;;4.30;;
52112;SDS011;38109;49.488;31.988;2023-05-20T00:53:43;5.78;;;4.38;;
52112;SDS011;38109;49.488;31.988;2023-05-20T00:56:10;5.57;;;4.30;;
52112;SDS011;38109;49.488;31.988;2023-05-20T00:58:36;5.63;;;4.18;;
52112;SDS011;38109;49.488;31.988;2023-05-20T01:01:03;5.32;;;4.25;;
52112;SDS011;38109;49.488;31.988;2023-05-20T01:03:29;6.18;;;4.40;;
52112;SDS011;38109;49.488;31.988;2023-05-20T01:05:55;6.10;;;4.60;;
52112;SDS011;38109;49.488;31.988;2023-05-20T01:08:21;5.07;;;4.57;;
52112;SDS011;38109;49.488;31.988;2023-05-20T01:10:50;5.05;;;4.25;;
52112;SDS011;38109;49.488;31.988;2023-05-20T01:13:26;5.20;;;4.35;;
52112;SDS011;38109;49.488;31.988;2023-05-20T01:15:56;5.95;;;4.53;;
52112;SDS011;38109;49.488;31.988;2023-05-20T01:18:23;5.35;;;4.40;;
52112;SDS011;38109;49.488;31.988;2023-05-20T01:20:54;8.52;;;4.72;;
52112;SDS011;38109;49.488;31.988;2023-05-20T01:23:29;5.75;;;5.00;;
52112;SDS011;38109;49.488;31.988;2023-05-20T01:26:05;6.10;;;4.50;;
52112;SDS011;38109;49.488;31.988;2023-05-20T01:28:31;5.05;;;4.35;;
52112;SDS011;38109;49.488;31.988;2023-05-20T01:31:03;6.18;;;4.28;;
52112;SDS011;38109;49.488;31.988;2023-05-20T01:33:30;7.47;;;4.25;;
52112;SDS011;38109;49.488;31.988;2023-05-20T01:35:59;9.77;;;4.93;;
52112;SDS011;38109;49.488;31.988;2023-05-20T01:38:25;6.65;;;4.38;;
52112;SDS011;38109;49.488;31.988;2023-05-20T01:40:52;6.32;;;4.35;;
52112;SDS011;38109;49.488;31.988;2023-05-20T01:43:18;6.82;;;4.88;;
52112;SDS011;38109;49.488;31.988;2023-05-20T01:45:45;6.05;;;4.50;;
52112;SDS011;38109;49.488;31.988;2023-05-20T01:48:12;5.85;;;4.22;;
52112;SDS011;38109;49.488;31.988;2023-05-20T01:50:38;6.07;;;4.43;;
52112;SDS011;38109;49.488;31.988;2023-05-20T01:53:04;4.90;;;3.90;;
52112;SDS011;38109;49.488;31.988;2023-05-20T01:55:32;5.70;;;4.45;;
52112;SDS011;38109;49.488;31.988;2023-05-20T01:57:58;4.93;;;4.05;;
52112;SDS011;38109;49.488;31.988;2023-05-20T02:00:23;6.07;;;4.40;;
52112;SDS011;38109;49.488;31.988;2023-05-20T02:02:49;8.32;;;4.40;;
52112;SDS011;38109;49.488;31.988;2023-05-20T02:05:15;5.50;;;4.07;;
52112;SDS011;38109;49.488;31.988;2023-05-20T02:07:41;5.35;;;4.07;;
52112;SDS011;38109;49.488;31.988;2023-05-20T02:10:06;4.75;;;4.07;;
52112;SDS011;38109;49.488;31.988;2023-05-20T02:12:32;6.10;;;4.13;;
52112;SDS011;38109;49.488;31.988;2023-05-20T02:14:58;6.72;;;4.13;;
52112;SDS011;38109;49.488;31.988;2023-05-20T02:17:24;4.57;;;3.88;;
52112;SDS011;38109;49.488;31.988;2023-05-20T02:19:50;5.70;;;4.13;;
52112;SDS011;38109;49.488;31.988;2023-05-20T02:22:16;4.80;;;4.13;;
52112;SDS011;38109;49.488;31.988;2023-05-20T02:24:42;6.72;;;4.60;;
52112;SDS011;38109;49.488;31.988;2023-05-20T02:27:08;5.25;;;4.10;;
52112;SDS011;38109;49.488;31.988;2023-05-20T02:29:34;5.53;;;3.83;;
52112;SDS011;38109;49.488;31.988;2023-05-20T02:32:00;6.22;;;4.32;;
52112;SDS011;38109;49.488;31.988;2023-05-20T02:34:26;5.57;;;4.00;;
52112;SDS011;38109;49.488;31.988;2023-05-20T02:36:51;4.95;;;3.95;;
52112;SDS011;38109;49.488;31.988;2023-05-20T02:39:18;5.25;;;4.20;;
52112;SDS011;38109;49.488;31.988;2023-05-20T02:41:43;5.88;;;4.35;;
52112;SDS011;38109;49.488;31.988;2023-05-20T02:44:09;5.13;;;4.38;;
52112;SDS011;38109;49.488;31.988;2023-05-20T02:46:35;7.45;;;4.05;;
52112;SDS011;38109;49.488;31.988;2023-05-20T02:49:01;5.32;;;4.28;;
52112;SDS011;38109;49.488;31.988;2023-05-20T02:51:26;5.35;;;3.83;;
52112;SDS011;38109;49.488;31.988;2023-05-20T02:53:52;6.13;;;3.88;;
52112;SDS011;38109;49.488;31.988;2023-05-20T02:56:18;6.65;;;4.38;;
52112;SDS011;38109;49.488;31.988;2023-05-20T02:58:46;5.85;;;4.10;;
52112;SDS011;38109;49.488;31.988;2023-05-20T03:01:12;4.97;;;3.85;;
52112;SDS011;38109;49.488;31.988;2023-05-20T03:03:38;6.80;;;4.00;;
52112;SDS011;38109;49.488;31.988;2023-05-20T03:06:04;5.28;;;4.20;;
52112;SDS011;38109;49.488;31.988;2023-05-20T03:08:32;5.45;;;3.78;;
52112;SDS011;38109;49.488;31.988;2023-05-20T03:11:00;4.97;;;3.85;;
52112;SDS011;38109;49.488;31.988;2023-05-20T03:13:26;4.68;;;3.88;;
52112;SDS011;38109;49.488;31.988;2023-05-20T03:15:51;6.00;;;4.00;;
52112;SDS011;38109;49.488;31.988;2023-05-20T03:18:17;4.57;;;4.07;;
52112;SDS011;38109;49.488;31.988;2023-05-20T03:20:43;4.43;;;3.70;;
52112;SDS011;38109;49.488;31.988;2023-05-20T03:23:10;4.22;;;3.42;;
52112;SDS011;38109;49.488;31.988;2023-05-20T03:25:36;6.25;;;4.05;;
52112;SDS011;38109;49.488;31.988;2023-05-20T03:28:02;5.72;;;3.80;;
52112;SDS011;38109;49.488;31.988;2023-05-20T03:30:27;4.30;;;3.55;;
52112;SDS011;38109;49.488;31.988;2023-05-20T03:32:54;5.35;;;3.90;;
52112;SDS011;38109;49.488;31.988;2023-05-20T03:35:21;5.20;;;3.92;;
52112;SDS011;38109;49.488;31.988;2023-05-20T03:37:47;4.57;;;3.60;;
52112;SDS011;38109;49.488;31.988;2023-05-20T03:40:13;4.65;;;3.90;;
52112;SDS011;38109;49.488;31.988;2023-05-20T03:42:38;4.72;;;3.67;;
52112;SDS011;38109;49.488;31.988;2023-05-20T03:45:04;4.82;;;3.83;;
52112;SDS011;38109;49.488;31.988;2023-05-20T03:47:30;3.83;;;3.45;;
52112;SDS011;38109;49.488;31.988;2023-05-20T03:49:56;6.50;;;3.92;;
52112;SDS011;38109;49.488;31.988;2023-05-20T03:52:22;5.22;;;3.88;;
52112;SDS011;38109;49.488;31.988;2023-05-20T03:54:48;4.57;;;3.40;;
52112;SDS011;38109;49.488;31.988;2023-05-20T03:57:13;5.80;;;4.10;;
52112;SDS011;38109;49.488;31.988;2023-05-20T03:59:39;4.78;;;3.63;;
52112;SDS011;38109;49.488;31.988;2023-05-20T04:02:15;4.45;;;3.78;;
52112;SDS011;38109;49.488;31.988;2023-05-20T04:04:41;4.60;;;4.10;;
52112;SDS011;38109;49.488;31.988;2023-05-20T04:07:07;5.43;;;4.05;;
52112;SDS011;38109;49.488;31.988;2023-05-20T04:18:17;5.03;;;4.13;;
52112;SDS011;38109;49.488;31.988;2023-05-20T04:20:42;5.10;;;3.80;;
52112;SDS011;38109;49.488;31.988;2023-05-20T04:23:08;4.80;;;3.97;;
52112;SDS011;38109;49.488;31.988;2023-05-20T04:25:34;4.28;;;3.58;;
52112;SDS011;38109;49.488;31.988;2023-05-20T04:28:00;8.82;;;4.45;;
52112;SDS011;38109;49.488;31.988;2023-05-20T04:30:26;5.20;;;4.00;;
52112;SDS011;38109;49.488;31.988;2023-05-20T04:32:52;5.32;;;3.95;;
52112;SDS011;38109;49.488;31.988;2023-05-20T04:35:18;5.82;;;4.30;;
52112;SDS011;38109;49.488;31.988;2023-05-20T04:37:44;5.13;;;3.58;;
52112;SDS011;38109;49.488;31.988;2023-05-20T04:40:12;4.78;;;3.63;;
52112;SDS011;38109;49.488;31.988;2023-05-20T04:42:38;4.60;;;3.63;;
52112;SDS011;38109;49.488;31.988;2023-05-20T04:45:04;4.18;;;3.50;;
52112;SDS011;38109;49.488;31.988;2023-05-20T04:47:33;5.45;;;3.88;;
52112;SDS011;38109;49.488;31.988;2023-05-20T04:50:02;4.80;;;3.75;;
52112;SDS011;38109;49.488;31.988;2023-05-20T04:52:34;4.88;;;3.90;;
52112;SDS011;38109;49.488;31.988;2023-05-20T04:55:03;4.30;;;3.67;;
52112;SDS011;38109;49.488;31.988;2023-05-20T04:57:29;7.20;;;4.22;;
52112;SDS011;38109;49.488;31.988;2023-05-20T04:59:58;4.10;;;3.67;;
52112;SDS011;38109;49.488;31.988;2023-05-20T05:02:24;4.45;;;3.55;;
52112;SDS011;38109;49.488;31.988;2023-05-20T05:04:50;5.20;;;4.20;;
52112;SDS011;38109;49.488;31.988;2023-05-20T05:07:16;4.18;;;3.55;;
52112;SDS011;38109;49.488;31.988;2023-05-20T05:09:41;3.95;;;3.55;;
52112;SDS011;38109;49.488;31.988;2023-05-20T05:12:07;5.22;;;3.88;;
52112;SDS011;38109;49.488;31.988;2023-05-20T05:14:33;5.20;;;3.92;;
52112;SDS011;38109;49.488;31.988;2023-05-20T05:16:58;6.07;;;4.03;;
52112;SDS011;38109;49.488;31.988;2023-05-20T05:19:24;4.72;;;3.80;;
52112;SDS011;38109;49.488;31.988;2023-05-20T05:21:49;5.05;;;3.95;;
52112;SDS011;38109;49.488;31.988;2023-05-20T05:24:15;5.38;;;3.67;;
52112;SDS011;38109;49.488;31.988;2023-05-20T05:30:10;5.10;;;4.05;;
52112;SDS011;38109;49.488;31.988;2023-05-20T05:32:36;4.43;;;3.85;;
52112;SDS011;38109;49.488;31.988;2023-05-20T05:35:02;4.60;;;3.70;;
52112;SDS011;38109;49.488;31.988;2023-05-20T05:40:13;4.45;;;3.90;;
52112;SDS011;38109;49.488;31.988;2023-05-20T05:42:39;5.38;;;3.90;;
52112;SDS011;38109;49.488;31.988;2023-05-20T05:45:05;4.90;;;3.97;;
52112;SDS011;38109;49.488;31.988;2023-05-20T05:47:31;5.80;;;4.00;;
52112;SDS011;38109;49.488;31.988;2023-05-20T05:49:57;4.57;;;3.75;;
52112;SDS011;38109;49.488;31.988;2023-05-20T05:52:24;4.20;;;3.72;;
52112;SDS011;38109;49.488;31.988;2023-05-20T05:54:50;6.55;;;3.63;;
52112;SDS011;38109;49.488;31.988;2023-05-20T05:57:16;4.53;;;3.80;;
52112;SDS011;38109;49.488;31.988;2023-05-20T05:59:43;4.43;;;3.60;;
52112;SDS011;38109;49.488;31.988;2023-05-20T06:02:09;4.28;;;3.50;;
52112;SDS011;38109;49.488;31.988;2023-05-20T06:04:49;4.97;;;3.83;;
52112;SDS011;38109;49.488;31.988;2023-05-20T06:07:15;3.97;;;3.40;;
52112;SDS011;38109;49.488;31.988;2023-05-20T06:09:41;4.07;;;3.42;;
52112;SDS011;38109;49.488;31.988;2023-05-20T06:12:07;6.03;;;3.60;;
52112;SDS011;38109;49.488;31.988;2023-05-20T06:14:33;4.07;;;3.40;;
52112;SDS011;38109;49.488;31.988;2023-05-20T06:16:59;4.18;;;3.63;;
52112;SDS011;38109;49.488;31.988;2023-05-20T06:19:28;4.30;;;3.90;;
52112;SDS011;38109;49.488;31.988;2023-05-20T06:21:55;5.18;;;4.07;;
52112;SDS011;38109;49.488;31.988;2023-05-20T06:24:23;4.88;;;3.92;;
52112;SDS011;38109;49.488;31.988;2023-05-20T06:26:49;4.03;;;3.35;;
52112;SDS011;38109;49.488;31.988;2023-05-20T06:29:15;4.00;;;3.60;;
52112;SDS011;38109;49.488;31.988;2023-05-20T06:31:40;4.22;;;3.45;;
52112;SDS011;38109;49.488;31.988;2023-05-20T06:34:06;3.97;;;3.38;;
52112;SDS011;38109;49.488;31.988;2023-05-20T06:36:32;3.72;;;3.42;;
52112;SDS011;38109;49.488;31.988;2023-05-20T06:38:57;3.90;;;3.40;;
52112;SDS011;38109;49.488;31.988;2023-05-20T06:41:23;4.03;;;3.63;;
52112;SDS011;38109;49.488;31.988;2023-05-20T06:43:49;3.92;;;3.53;;
52112;SDS011;38109;49.488;31.988;2023-05-20T06:46:15;4.35;;;3.47;;
52112;SDS011;38109;49.488;31.988;2023-05-20T06:48:41;4.43;;;3.60;;
52112;SDS011;38109;49.488;31.988;2023-05-20T06:51:07;3.90;;;3.50;;
52112;SDS011;38109;49.488;31.988;2023-05-20T06:53:35;4.43;;;3.50;;
52112;SDS011;38109;49.488;31.988;2023-05-20T06:56:01;4.35;;;3.65;;
52112;SDS011;38109;49.488;31.988;2023-05-20T06:58:27;4.50;;;3.17;;
52112;SDS011;38109;49.488;31.988;2023-05-20T07:00:53;3.80;;;3.38;;
52112;SDS011;38109;49.488;31.988;2023-05-20T07:03:19;3.80;;;3.50;;
52112;SDS011;38109;49.488;31.988;2023-05-20T07:05:44;3.83;;;3.50;;
52112;SDS011;38109;49.488;31.988;2023-05-20T07:08:10;4.75;;;4.20;;
52112;SDS011;38109;49.488;31.988;2023-05-20T07:10:36;5.93;;;3.50;;
52112;SDS011;38109;49.488;31.988;2023-05-20T07:13:02;4.45;;;3.72;;
52112;SDS011;38109;49.488;31.988;2023-05-20T07:15:27;3.47;;;3.17;;
52112;SDS011;38109;49.488;31.988;2023-05-20T07:17:53;3.83;;;3.40;;
52112;SDS011;38109;49.488;31.988;2023-05-20T07:20:19;4.30;;;3.60;;
52112;SDS011;38109;49.488;31.988;2023-05-20T07:22:45;5.30;;;3.95;;
52112;SDS011;38109;49.488;31.988;2023-05-20T07:25:12;4.40;;;4.00;;
52112;SDS011;38109;49.488;31.988;2023-05-20T07:27:38;5.93;;;4.18;;
52112;SDS011;38109;49.488;31.988;2023-05-20T07:30:04;4.57;;;3.75;;
52112;SDS011;38109;49.488;31.988;2023-05-20T07:32:30;5.95;;;3.47;;
52112;SDS011;38109;49.488;31.988;2023-05-20T07:34:56;3.85;;;3.35;;
52112;SDS011;38109;49.488;31.988;2023-05-20T07:37:21;4.03;;;3.33;;
52112;SDS011;38109;49.488;31.988;2023-05-20T07:39:47;5.13;;;3.75;;
52112;SDS011;38109;49.488;31.988;2023-05-20T07:42:13;3.70;;;3.40;;
52112;SDS011;38109;49.488;31.988;2023-05-20T07:44:38;3.92;;;3.45;;
52112;SDS011;38109;49.488;31.988;2023-05-20T07:47:04;6.57;;;3.40;;
52112;SDS011;38109;49.488;31.988;2023-05-20T07:49:30;4.63;;;3.75;;
52112;SDS011;38109;49.488;31.988;2023-05-20T07:51:55;4.47;;;3.78;;
52112;SDS011;38109;49.488;31.988;2023-05-20T07:54:21;4.72;;;3.75;;
52112;SDS011;38109;49.488;31.988;2023-05-20T07:56:47;5.28;;;3.78;;
52112;SDS011;38109;49.488;31.988;2023-05-20T07:59:13;8.20;;;3.55;;
52112;SDS011;38109;49.488;31.988;2023-05-20T08:01:39;4.22;;;3.35;;
52112;SDS011;38109;49.488;31.988;2023-05-20T08:04:06;4.60;;;3.90;;
52112;SDS011;38109;49.488;31.988;2023-05-20T08:06:32;4.63;;;3.70;;
52112;SDS011;38109;49.488;31.988;2023-05-20T08:08:59;5.32;;;3.75;;
52112;SDS011;38109;49.488;31.988;2023-05-20T08:11:25;4.43;;;3.63;;
52112;SDS011;38109;49.488;31.988;2023-05-20T08:13:51;5.28;;;3.80;;
52112;SDS011;38109;49.488;31.988;2023-05-20T08:16:17;3.90;;;3.50;;
52112;SDS011;38109;49.488;31.988;2023-05-20T08:18:44;4.88;;;3.80;;
52112;SDS011;38109;49.488;31.988;2023-05-20T08:21:10;4.97;;;3.80;;
52112;SDS011;38109;49.488;31.988;2023-05-20T08:23:37;4.65;;;3.88;;
52112;SDS011;38109;49.488;31.988;2023-05-20T08:26:02;4.05;;;3.60;;
52112;SDS011;38109;49.488;31.988;2023-05-20T08:28:28;4.38;;;3.70;;
52112;SDS011;38109;49.488;31.988;2023-05-20T08:30:55;4.57;;;4.00;;
52112;SDS011;38109;49.488;31.988;2023-05-20T08:33:22;4.18;;;3.72;;
52112;SDS011;38109;49.488;31.988;2023-05-20T08:35:48;4.03;;;3.63;;
52112;SDS011;38109;49.488;31.988;2023-05-20T08:38:14;4.05;;;3.65;;
52112;SDS011;38109;49.488;31.988;2023-05-20T08:40:40;4.85;;;4.28;;
52112;SDS011;38109;49.488;31.988;2023-05-20T08:43:05;5.07;;;4.15;;
52112;SDS011;38109;49.488;31.988;2023-05-20T08:45:33;5.05;;;3.92;;
52112;SDS011;38109;49.488;31.988;2023-05-20T08:48:03;4.32;;;3.80;;
52112;SDS011;38109;49.488;31.988;2023-05-20T08:50:29;4.70;;;4.05;;
52112;SDS011;38109;49.488;31.988;2023-05-20T08:52:55;4.43;;;3.60;;
52112;SDS011;38109;49.488;31.988;2023-05-20T08:55:41;4.20;;;3.80;;
52112;SDS011;38109;49.488;31.988;2023-05-20T08:58:08;3.92;;;3.53;;
52112;SDS011;38109;49.488;31.988;2023-05-20T09:00:34;4.20;;;3.75;;
52112;SDS011;38109;49.488;31.988;2023-05-20T09:03:01;4.10;;;3.70;;
52112;SDS011;38109;49.488;31.988;2023-05-20T09:05:28;5.35;;;3.60;;
52112;SDS011;38109;49.488;31.988;2023-05-20T09:08:03;4.25;;;3.85;;
52112;SDS011;38109;49.488;31.988;2023-05-20T09:10:33;3.97;;;3.58;;
52112;SDS011;38109;49.488;31.988;2023-05-20T09:13:00;5.47;;;4.00;;
52112;SDS011;38109;49.488;31.988;2023-05-20T09:15:29;3.90;;;3.50;;
52112;SDS011;38109;49.488;31.988;2023-05-20T09:17:58;4.25;;;3.20;;
52112;SDS011;38109;49.488;31.988;2023-05-20T09:20:25;4.15;;;3.50;;
52112;SDS011;38109;49.488;31.988;2023-05-20T09:22:53;4.85;;;3.70;;
52112;SDS011;38109;49.488;31.988;2023-05-20T09:25:22;3.90;;;3.50;;
52112;SDS011;38109;49.488;31.988;2023-05-20T09:27:48;5.07;;;3.55;;
52112;SDS011;38109;49.488;31.988;2023-05-20T09:30:17;4.57;;;4.00;;
52112;SDS011;38109;49.488;31.988;2023-05-20T09:32:44;4.63;;;3.55;;
52112;SDS011;38109;49.488;31.988;2023-05-20T09:35:13;3.42;;;3.13;;
52112;SDS011;38109;49.488;31.988;2023-05-20T09:37:41;4.15;;;3.45;;
52112;SDS011;38109;49.488;31.988;2023-05-20T09:40:10;3.50;;;3.20;;
52112;SDS011;38109;49.488;31.988;2023-05-20T09:42:46;3.72;;;3.20;;
52112;SDS011;38109;49.488;31.988;2023-05-20T09:45:17;3.78;;;3.38;;
52112;SDS011;38109;49.488;31.988;2023-05-20T09:47:42;3.60;;;3.30;;
52112;SDS011;38109;49.488;31.988;2023-05-20T09:50:09;4.00;;;3.60;;
52112;SDS011;38109;49.488;31.988;2023-05-20T09:52:38;5.30;;;3.35;;
52112;SDS011;38109;49.488;31.988;2023-05-20T09:55:04;3.67;;;3.38;;
52112;SDS011;38109;49.488;31.988;2023-05-20T09:57:34;4.10;;;3.65;;
52112;SDS011;38109;49.488;31.988;2023-05-20T10:00:01;4.15;;;3.30;;
52112;SDS011;38109;49.488;31.988;2023-05-20T10:02:29;4.03;;;3.63;;
52112;SDS011;38109;49.488;31.988;2023-05-20T10:04:55;3.65;;;3.35;;
52112;SDS011;38109;49.488;31.988;2023-05-20T10:21:31;3.60;;;3.30;;
52112;SDS011;38109;49.488;31.988;2023-05-20T10:24:09;4.45;;;3.58;;
52112;SDS011;38109;49.488;31.988;2023-05-20T10:26:39;3.42;;;3.13;;
52112;SDS011;38109;49.488;31.988;2023-05-20T10:29:18;3.53;;;3.22;;
52112;SDS011;38109;49.488;31.988;2023-05-20T10:31:50;6.78;;;4.07;;
52112;SDS011;38109;49.488;31.988;2023-05-20T10:34:17;4.60;;;4.03;;
52112;SDS011;38109;49.488;31.988;2023-05-20T10:36:45;4.60;;;3.95;;
52112;SDS011;38109;49.488;31.988;2023-05-20T10:39:26;4.10;;;3.70;;
52112;SDS011;38109;49.488;31.988;2023-05-20T10:42:14;4.55;;;4.15;;
52112;SDS011;38109;49.488;31.988;2023-05-20T10:44:43;4.57;;;3.83;;
52112;SDS011;38109;49.488;31.988;2023-05-20T10:47:10;4.45;;;3.85;;
52112;SDS011;38109;49.488;31.988;2023-05-20T10:49:42;3.88;;;3.58;;
52112;SDS011;38109;49.488;31.988;2023-05-20T10:52:12;4.10;;;3.60;;
52112;SDS011;38109;49.488;31.988;2023-05-20T10:54:42;5.07;;;4.05;;
52112;SDS011;38109;49.488;31.988;2023-05-20T10:57:12;4.07;;;3.78;;
52112;SDS011;38109;49.488;31.988;2023-05-20T10:59:37;4.25;;;3.60;;
52112;SDS011;38109;49.488;31.988;2023-05-20T11:02:04;3.83;;;3.53;;
52112;SDS011;38109;49.488;31.988;2023-05-20T11:04:31;5.18;;;3.80;;
52112;SDS011;38109;49.488;31.988;2023-05-20T11:06:57;4.00;;;3.60;;
52112;SDS011;38109;49.488;31.988;2023-05-20T11:09:23;3.80;;;3.50;;
52112;SDS011;38109;49.488;31.988;2023-05-20T11:11:49;4.30;;;3.90;;
52112;SDS011;38109;49.488;31.988;2023-05-20T11:14:17;4.72;;;3.90;;
52112;SDS011;38109;49.488;31.988;2023-05-20T11:16:44;4.90;;;4.30;;
52112;SDS011;38109;49.488;31.988;2023-05-20T11:19:14;4.30;;;3.90;;
52112;SDS011;38109;49.488;31.988;2023-05-20T11:21:48;4.32;;;3.95;;
52112;SDS011;38109;49.488;31.988;2023-05-20T11:24:22;5.07;;;3.53;;
52112;SDS011;38109;49.488;31.988;2023-05-20T11:26:49;6.25;;;4.80;;
52112;SDS011;38109;49.488;31.988;2023-05-20T11:29:16;5.88;;;4.57;;
52112;SDS011;38109;49.488;31.988;2023-05-20T11:31:43;4.95;;;4.32;;
52112;SDS011;38109;49.488;31.988;2023-05-20T11:34:09;8.98;;;5.90;;
52112;SDS011;38109;49.488;31.988;2023-05-20T11:36:40;7.43;;;5.65;;
52112;SDS011;38109;49.488;31.988;2023-05-20T11:39:06;6.40;;;4.97;;
52112;SDS011;38109;49.488;31.988;2023-05-20T11:41:35;5.38;;;4.80;;
52112;SDS011;38109;49.488;31.988;2023-05-20T11:44:01;4.63;;;4.07;;
52112;SDS011;38109;49.488;31.988;2023-05-20T11:46:26;4.40;;;4.00;;
52112;SDS011;38109;49.488;31.988;2023-05-20T11:48:53;4.00;;;3.60;;
52112;SDS011;38109;49.488;31.988;2023-05-20T11:51:22;4.28;;;3.80;;
52112;SDS011;38109;49.488;31.988;2023-05-20T11:53:51;4.07;;;3.67;;
52112;SDS011;38109;49.488;31.988;2023-05-20T11:56:16;4.00;;;3.58;;
52112;SDS011;38109;49.488;31.988;2023-05-20T11:58:42;4.57;;;4.18;;
52112;SDS011;38109;49.488;31.988;2023-05-20T12:01:09;4.22;;;3.60;;
52112;SDS011;38109;49.488;31.988;2023-05-20T12:03:35;4.32;;;3.92;;
52112;SDS011;38109;49.488;31.988;2023-05-20T12:06:01;4.28;;;3.67;;
52112;SDS011;38109;49.488;31.988;2023-05-20T12:08:27;4.15;;;3.75;;
52112;SDS011;38109;49.488;31.988;2023-05-20T12:10:53;4.75;;;4.25;;
52112;SDS011;38109;49.488;31.988;2023-05-20T12:13:19;4.45;;;3.60;;
52112;SDS011;38109;49.488;31.988;2023-05-20T12:15:45;4.45;;;4.05;;
52112;SDS011;38109;49.488;31.988;2023-05-20T12:18:10;3.70;;;3.40;;
52112;SDS011;38109;49.488;31.988;2023-05-20T12:20:36;4.03;;;3.53;;
52112;SDS011;38109;49.488;31.988;2023-05-20T12:23:02;4.10;;;3.70;;
52112;SDS011;38109;49.488;31.988;2023-05-20T12:25:28;4.53;;;4.13;;
52112;SDS011;38109;49.488;31.988;2023-05-20T12:27:54;4.60;;;4.10;;
52112;SDS011;38109;49.488;31.988;2023-05-20T12:30:20;3.90;;;3.60;;
52112;SDS011;38109;49.488;31.988;2023-05-20T12:32:47;4.35;;;3.58;;
52112;SDS011;38109;49.488;31.988;2023-05-20T12:35:15;3.92;;;3.55;;
52112;SDS011;38109;49.488;31.988;2023-05-20T12:37:41;3.97;;;3.58;;
52112;SDS011;38109;49.488;31.988;2023-05-20T12:40:07;3.97;;;3.55;;
52112;SDS011;38109;49.488;31.988;2023-05-20T12:42:35;3.75;;;3.45;;
52112;SDS011;38109;49.488;31.988;2023-05-20T12:45:01;3.85;;;3.45;;
52112;SDS011;38109;49.488;31.988;2023-05-20T12:47:28;3.78;;;3.47;;
52112;SDS011;38109;49.488;31.988;2023-05-20T12:49:54;4.07;;;3.78;;
52112;SDS011;38109;49.488;31.988;2023-05-20T12:52:19;4.25;;;3.70;;
52112;SDS011;38109;49.488;31.988;2023-05-20T12:54:45;3.60;;;3.30;;
52112;SDS011;38109;49.488;31.988;2023-05-20T12:57:11;3.88;;;3.47;;
52112;SDS011;38109;49.488;31.988;2023-05-20T12:59:36;3.88;;;3.58;;
52112;SDS011;38109;49.488;31.988;2023-05-20T13:02:02;3.80;;;3.50;;
52112;SDS011;38109;49.488;31.988;2023-05-20T13:04:28;5.95;;;3.20;;
52112;SDS011;38109;49.488;31.988;2023-05-20T13:06:53;3.83;;;3.50;;
52112;SDS011;38109;49.488;31.988;2023-05-20T13:09:19;3.60;;;3.30;;
52112;SDS011;38109;49.488;31.988;2023-05-20T13:11:45;4.55;;;3.75;;
52112;SDS011;38109;49.488;31.988;2023-05-20T13:14:11;3.60;;;3.30;;
52112;SDS011;38109;49.488;31.988;2023-05-20T13:16:37;3.30;;;3.10;;
52112;SDS011;38109;49.488;31.988;2023-05-20T13:19:02;3.92;;;3.38;;
52112;SDS011;38109;49.488;31.988;2023-05-20T13:21:28;3.65;;;3.35;;
52112;SDS011;38109;49.488;31.988;2023-05-20T13:23:54;4.03;;;3.38;;
52112;SDS011;38109;49.488;31.988;2023-05-20T13:26:20;3.60;;;3.30;;
52112;SDS011;38109;49.488;31.988;2023-05-20T13:28:46;4.05;;;3.30;;
52112;SDS011;38109;49.488;31.988;2023-05-20T13:31:12;3.78;;;3.30;;
52112;SDS011;38109;49.488;31.988;2023-05-20T13:33:37;3.97;;;3.42;;
52112;SDS011;38109;49.488;31.988;2023-05-20T13:36:03;4.13;;;3.22;;
52112;SDS011;38109;49.488;31.988;2023-05-20T13:38:29;3.78;;;3.47;;
52112;SDS011;38109;49.488;31.988;2023-05-20T13:40:55;3.83;;;3.42;;
52112;SDS011;38109;49.488;31.988;2023-05-20T13:43:23;5.20;;;3.38;;
52112;SDS011;38109;49.488;31.988;2023-05-20T13:45:50;3.72;;;3.30;;
52112;SDS011;38109;49.488;31.988;2023-05-20T13:48:16;4.13;;;3.50;;
52112;SDS011;38109;49.488;31.988;2023-05-20T13:50:41;4.10;;;3.70;;
52112;SDS011;38109;49.488;31.988;2023-05-20T13:53:07;5.88;;;3.33;;
52112;SDS011;38109;49.488;31.988;2023-05-20T13:55:36;3.65;;;3.35;;
52112;SDS011;38109;49.488;31.988;2023-05-20T13:58:02;4.63;;;3.20;;
52112;SDS011;38109;49.488;31.988;2023-05-20T14:00:29;3.42;;;3.13;;
52112;SDS011;38109;49.488;31.988;2023-05-20T14:02:55;5.15;;;3.70;;
52112;SDS011;38109;49.488;31.988;2023-05-20T14:05:21;3.60;;;3.30;;
52112;SDS011;38109;49.488;31.988;2023-05-20T14:07:47;3.90;;;3.60;;
52112;SDS011;38109;49.488;31.988;2023-05-20T14:10:13;3.25;;;3.05;;
52112;SDS011;38109;49.488;31.988;2023-05-20T14:12:39;3.95;;;3.15;;
52112;SDS011;38109;49.488;31.988;2023-05-20T14:15:05;3.40;;;3.20;;
52112;SDS011;38109;49.488;31.988;2023-05-20T14:17:31;3.80;;;3.50;;
52112;SDS011;38109;49.488;31.988;2023-05-20T14:19:56;4.13;;;3.72;;
52112;SDS011;38109;49.488;31.988;2023-05-20T14:22:22;6.05;;;3.83;;
52112;SDS011;38109;49.488;31.988;2023-05-20T14:24:48;3.70;;;3.40;;
52112;SDS011;38109;49.488;31.988;2023-05-20T14:27:13;3.65;;;3.35;;
52112;SDS011;38109;49.488;31.988;2023-05-20T14:29:39;3.90;;;3.55;;
52112;SDS011;38109;49.488;31.988;2023-05-20T14:32:05;3.65;;;3.35;;
52112;SDS011;38109;49.488;31.988;2023-05-20T14:34:31;3.67;;;3.38;;
52112;SDS011;38109;49.488;31.988;2023-05-20T14:36:56;3.65;;;3.35;;
52112;SDS011;38109;49.488;31.988;2023-05-20T14:39:22;3.90;;;3.60;;
52112;SDS011;38109;49.488;31.988;2023-05-20T14:41:48;5.70;;;3.50;;
52112;SDS011;38109;49.488;31.988;2023-05-20T14:44:13;6.70;;;3.80;;
52112;SDS011;38109;49.488;31.988;2023-05-20T14:46:39;4.50;;;3.80;;
52112;SDS011;38109;49.488;31.988;2023-05-20T14:49:05;3.70;;;3.40;;
52112;SDS011;38109;49.488;31.988;2023-05-20T14:51:30;4.60;;;4.20;;
52112;SDS011;38109;49.488;31.988;2023-05-20T14:53:56;5.97;;;4.95;;
52112;SDS011;38109;49.488;31.988;2023-05-20T14:56:22;4.03;;;3.67;;
52112;SDS011;38109;49.488;31.988;2023-05-20T14:58:47;4.70;;;3.80;;